Flight Track Log - Related Links

Times and Time Zones

All times are in EDT time to prevent confusion due to time zone crossing. See the N566UA flight status page for this flight to view local times or setup timezone preferences in your user account.

Time Position Orientation Groundspeed Altitude Reporting Facility
EDT Latitude Longitude Course Direction KTS MPH feet Rate Location/Type
Fri 07:19:41 PM 36.0767 -115.1706 94° East 172 198 3,200  Level Los Angeles Center
Fri 07:20:00 PM 36.0764 -115.1894 269° West 174 200 3,600 1,500 Climbing Los Angeles Center
Fri 07:21:05 PM 36.0778 -115.2642 271° West 212 244 5,300 2,126 Climbing Los Angeles Center
Fri 07:22:00 PM 36.1834 -115.0503 90° East  Level FlightAware Approximate
Fri 07:22:07 PM 36.1406 -115.2933 339° North 249 287 8,100  Level Los Angeles Center
Fri 07:23:00 PM 36.1833 -114.8881 90° East  Level FlightAware Approximate
Fri 07:23:10 PM 36.1842 -115.2269 51° Northeast 264 304 10,100  Level Los Angeles Center
Fri 07:24:00 PM 36.1978 -114.7279 94° East  Level FlightAware Approximate
Fri 07:24:12 PM 36.1967 -115.1158 82° East 325 374 11,300  Level Los Angeles Center
Fri 07:25:14 PM 36.1969 -114.9639 90° East 365 420 13,900 2,613 Climbing Los Angeles Center
Fri 07:26:16 PM 36.1981 -114.8314 89° East 380 437 16,700 2,323 Climbing Los Angeles Center
Fri 07:27:18 PM 36.1981 -114.6942 90° East 391 450 18,700 1,887 Climbing Los Angeles Center
Fri 07:28:20 PM 36.1956 -114.5514 91° East 408 470 20,600 1,790 Climbing Los Angeles Center
Fri 07:29:22 PM 36.1944 -114.4028 90° East 425 489 22,400 1,742 Climbing Los Angeles Center
Fri 07:30:24 PM 36.1928 -114.2186 91° East 444 511 24,200 1,500 Climbing Los Angeles Center
Fri 07:31:26 PM 36.2136 -114.0608 81° East 462 532 25,500 1,344 Climbing Los Angeles Center
Fri 07:32:29 PM 36.2339 -113.8981 81° East 475 547 27,000 1,392 Climbing Los Angeles Center
Fri 07:33:31 PM 36.2531 -113.7317 82° East 485 558 28,400 1,210 Climbing Los Angeles Center
Fri 07:34:33 PM 36.2733 -113.5617 82° East 493 567 29,500 1,161 Climbing Los Angeles Center
Fri 07:35:35 PM 36.2925 -113.3883 82° East 504 580 30,800 1,210 Climbing Los Angeles Center
Fri 07:36:37 PM 36.3253 -113.1853 79° East 506 582 32,000 581 Climbing Los Angeles Center
Fri 07:37:39 PM 36.3811 -113.0328 66° East 492 566 32,000 48 Level Los Angeles Center
Fri 07:38:41 PM 36.4381 -112.8800 65° Northeast 491 565 32,100 480 Climbing Los Angeles Center
Fri 07:39:44 PM 36.4936 -112.7294 65° Northeast 486 559 33,000 435 Climbing Los Angeles Center
Fri 07:40:45 PM 36.5481 -112.5794 66° East 482 555 33,000  Level Los Angeles Center
Fri 07:41:48 PM 36.6153 -112.3983 65° Northeast 483 556 33,000  Level Los Angeles Center
Fri 07:42:50 PM 36.6706 -112.2475 65° Northeast 483 556 33,000  Level Los Angeles Center
Fri 07:43:52 PM 36.7256 -112.0953 66° East 484 557 33,000  Level Los Angeles Center
Fri 07:44:20 PM 36.7467 -112.0356 66° East 483 556 33,000  Level Denver Center
Fri 07:45:22 PM 36.8031 -111.8814 65° Northeast 487 560 33,000  Level Denver Center
Fri 07:46:24 PM 36.8686 -111.6967 66° East 488 562 33,000  Level Denver Center
Fri 07:47:26 PM 36.9242 -111.5447 65° Northeast 485 558 33,000  Level Denver Center
Fri 07:48:28 PM 36.9778 -111.3911 66° East 485 558 33,000 97 Level Denver Center
Fri 07:49:30 PM 37.0256 -111.2406 68° East 475 547 33,200 532 Climbing Denver Center
Fri 07:50:32 PM 37.0703 -111.0803 71° East 490 564 34,100 1,065 Climbing Denver Center
Fri 07:51:34 PM 37.1214 -110.8881 72° East 488 562 35,400 1,113 Climbing Denver Center
Fri 07:52:36 PM 37.1656 -110.7275 71° East 490 564 36,400 774 Climbing Denver Center
Fri 07:53:38 PM 37.2069 -110.5686 72° East 484 557 37,000 290 Climbing Denver Center
Fri 07:54:40 PM 37.2497 -110.4086 71° East 483 556 37,000  Level Denver Center
Fri 07:55:42 PM 37.2922 -110.2483 72° East 485 558 37,000  Level Denver Center
Fri 07:56:44 PM 37.3361 -110.0825 72° East 487 560 37,000  Level Denver Center
Fri 07:57:46 PM 37.3831 -109.8994 72° East 490 564 37,000  Level Denver Center
Fri 07:58:48 PM 37.4244 -109.7422 72° East 495 570 37,000  Level Denver Center
Fri 07:59:50 PM 37.4725 -109.5564 72° East 499 574 37,000  Level Denver Center
Fri 08:00:52 PM 37.5133 -109.3978 72° East 497 572 37,000  Level Denver Center
Fri 08:01:54 PM 37.5606 -109.2117 72° East 498 573 37,000  Level Denver Center
Fri 08:02:56 PM 37.6000 -109.0508 73° East 500 575 37,000  Level Denver Center
Fri 08:03:59 PM 37.6458 -108.8661 73° East 494 568 37,000  Level Denver Center
Fri 08:05:01 PM 37.6847 -108.7067 73° East 495 570 37,000  Level Denver Center
Fri 08:06:03 PM 37.7314 -108.5225 72° East 493 567 37,000  Level Denver Center
Fri 08:07:05 PM 37.7703 -108.3642 73° East 492 566 37,000  Level Denver Center
Fri 08:08:06 PM 37.8097 -108.2072 72° East 489 563 37,000  Level Denver Center
Fri 08:09:08 PM 37.8547 -108.0231 73° East 490 564 37,000  Level Denver Center
Fri 08:10:10 PM 37.8925 -107.8653 73° East 490 564 37,000  Level Denver Center
Fri 08:11:12 PM 37.9372 -107.6775 73° East 495 570 37,000  Level Denver Center
Fri 08:12:14 PM 37.9797 -107.5189 71° East 498 573 37,000  Level Denver Center
Fri 08:13:16 PM 38.0522 -107.3522 61° Northeast 483 556 37,000  Level Denver Center
Fri 08:14:18 PM 38.1194 -107.1981 61° Northeast 485 558 37,000  Level Denver Center
Fri 08:15:20 PM 38.1831 -107.0567 60° Northeast 480 552 37,000  Level Denver Center
Fri 08:16:22 PM 38.2478 -106.9081 61° Northeast 481 554 37,000  Level Denver Center
Fri 08:17:24 PM 38.3197 -106.7503 60° Northeast 483 556 37,000  Level Denver Center
Fri 08:18:26 PM 38.3831 -106.6072 61° Northeast 485 558 37,000  Level Denver Center
Fri 08:19:28 PM 38.4306 -106.4492 69° East 493 567 37,000  Level Denver Center
Fri 08:20:30 PM 38.4756 -106.2486 74° East 492 566 37,000  Level Denver Center
Fri 08:21:32 PM 38.5133 -106.0867 73° East 492 566 37,000  Level Denver Center
Fri 08:22:45 PM 38.5547 -105.8986 74° East 492 566 37,000  Level Denver Center
Fri 08:23:48 PM 38.5992 -105.6917 75° East 491 565 37,000  Level Denver Center
Fri 08:24:50 PM 38.6350 -105.5239 75° East 486 559 37,000  Level Denver Center
Fri 08:25:51 PM 38.6711 -105.3525 75° East 493 567 37,000  Level Denver Center
Fri 08:26:53 PM 38.7058 -105.1850 75° East 486 559 37,000  Level Denver Center
Fri 08:27:55 PM 38.7425 -105.0147 75° East 492 566 37,000  Level Denver Center
Fri 08:29:09 PM 38.7792 -104.8431 75° East 495 570 37,000  Level Denver Center
Fri 08:30:11 PM 38.8264 -104.6167 75° East 493 567 37,000  Level Denver Center
Fri 08:31:13 PM 38.8614 -104.4450 75° East 493 567 37,000  Level Denver Center
Fri 08:32:14 PM 38.8961 -104.2761 75° East 491 565 37,000  Level Denver Center
Fri 08:33:16 PM 38.9308 -104.1042 75° East 494 568 37,000  Level Denver Center
Fri 08:34:18 PM 38.9653 -103.9325 75° East 495 570 37,000  Level Denver Center
Fri 08:35:19 PM 38.9981 -103.7611 76° East 492 566 37,000  Level Denver Center
Fri 08:36:21 PM 39.0336 -103.5872 75° East 498 573 37,000  Level Denver Center
Fri 08:37:23 PM 39.0725 -103.3861 76° East 495 570 37,000  Level Denver Center
Fri 08:38:37 PM 39.1075 -103.2111 75° East 499 574 37,000  Level Denver Center
Fri 08:39:38 PM 39.1447 -103.0083 77° East 496 571 37,000  Level Denver Center
Fri 08:40:40 PM 39.1775 -102.8342 76° East 497 572 37,000  Level Denver Center
Fri 08:41:41 PM 39.2100 -102.6603 76° East 494 568 37,000  Level Denver Center
Fri 08:42:43 PM 39.2461 -102.4697 76° East 490 564 37,000  Level Denver Center
Fri 08:43:45 PM 39.2758 -102.3061 77° East 490 564 37,000  Level Denver Center
Fri 08:44:46 PM 39.3064 -102.1447 76° East 487 560 37,000  Level Denver Center
Fri 08:45:48 PM 39.3383 -101.9697 77° East 489 563 37,000  Level Denver Center
Fri 08:46:49 PM 39.3722 -101.7786 77° East 491 565 37,000  Level Denver Center
Fri 08:47:51 PM 39.4128 -101.6169 72° East 497 572 37,000  Level Denver Center
Fri 08:48:53 PM 39.4653 -101.4294 70° East 499 574 37,000  Level Denver Center
Fri 08:49:54 PM 39.5119 -101.2694 69° East 499 574 37,000  Level Denver Center
Fri 08:50:56 PM 39.5672 -101.0819 69° East 499 574 37,000  Level Denver Center
Fri 08:51:57 PM 39.6142 -100.9211 69° East 500 575 37,000  Level Denver Center
Fri 08:52:59 PM 39.6675 -100.7356 69° East 494 568 37,000  Level Denver Center
Fri 08:54:01 PM 39.7136 -100.5750 69° East 497 572 37,000  Level Denver Center
Fri 08:55:02 PM 39.7594 -100.4169 69° East 493 567 37,000  Level Denver Center
Fri 08:56:04 PM 39.8122 -100.2306 70° East 494 568 37,000  Level Denver Center
Fri 08:57:05 PM 39.8583 -100.0656 70° East 487 560 37,000  Level Denver Center
Fri 08:58:07 PM 39.9044 -99.8994 70° East 488 562 37,000  Level Denver Center
Fri 08:59:09 PM 39.9497 -99.7336 70° East 486 559 37,000  Level Denver Center
Fri 09:00:10 PM 39.9953 -99.5683 70° East 487 560 37,000  Level Denver Center
Fri 09:01:12 PM 40.0406 -99.4019 70° East 487 560 37,000  Level Denver Center
Fri 09:02:14 PM 40.0950 -99.2050 70° East 485 558 37,000  Level Denver Center
Fri 09:03:15 PM 40.1400 -99.0394 70° East 483 556 37,000  Level Denver Center
Fri 09:04:17 PM 40.1847 -98.8736 71° East 485 558 37,000  Level Denver Center
Fri 09:05:03 PM 40.2186 -98.7417 71° East 485 558 37,000  Level Minneapolis Center
Fri 09:06:05 PM 40.2633 -98.5761 70° East 485 558 37,000  Level Minneapolis Center
Fri 09:07:07 PM 40.3072 -98.4097 71° East 485 558 37,000  Level Minneapolis Center
Fri 09:08:09 PM 40.3506 -98.2419 71° East 487 560 37,000  Level Minneapolis Center
Fri 09:09:11 PM 40.3939 -98.0742 71° East 488 562 37,000  Level Minneapolis Center
Fri 09:10:13 PM 40.4461 -97.8717 71° East 490 564 37,000  Level Minneapolis Center
Fri 09:11:15 PM 40.4886 -97.7014 72° East 492 566 37,000  Level Minneapolis Center
Fri 09:12:17 PM 40.5314 -97.5322 72° East 491 565 37,000  Level Minneapolis Center
Fri 09:13:19 PM 40.5753 -97.3614 71° East 493 567 37,000  Level Minneapolis Center
Fri 09:14:21 PM 40.6231 -97.1667 72° East 496 571 37,000  Level Minneapolis Center
Fri 09:15:23 PM 40.6653 -96.9958 72° East 493 567 37,000  Level Minneapolis Center
Fri 09:16:25 PM 40.7078 -96.8239 72° East 495 570 37,000  Level Minneapolis Center
Fri 09:17:26 PM 40.7506 -96.6522 72° East 494 568 37,000  Level Minneapolis Center
Fri 09:18:28 PM 40.7917 -96.4800 72° East 494 568 37,000  Level Minneapolis Center
Fri 09:19:30 PM 40.8336 -96.3081 72° East 495 570 37,000  Level Minneapolis Center
Fri 09:20:32 PM 40.8839 -96.1006 72° East 498 573 37,000  Level Minneapolis Center
Fri 09:21:34 PM 40.9253 -95.9300 72° East 495 570 37,000  Level Minneapolis Center
Fri 09:22:36 PM 40.9642 -95.7572 73° East 495 570 37,000  Level Minneapolis Center
Fri 09:23:38 PM 41.0044 -95.5836 73° East 497 572 37,000  Level Minneapolis Center
Fri 09:24:40 PM 41.0453 -95.4092 73° East 500 575 37,000  Level Minneapolis Center
Fri 09:25:42 PM 41.0939 -95.1989 73° East 500 575 37,000  Level Minneapolis Center
Fri 09:26:44 PM 41.1336 -95.0242 73° East 499 574 37,000  Level Minneapolis Center
Fri 09:27:45 PM 41.1731 -94.8494 73° East 497 572 37,000  Level Minneapolis Center
Fri 09:28:47 PM 41.2125 -94.6744 73° East 497 572 37,000  Level Minneapolis Center
Fri 09:29:49 PM 41.2514 -94.4989 74° East 497 572 37,000  Level Minneapolis Center
Fri 09:30:51 PM 41.2900 -94.3225 74° East 498 573 37,000  Level Minneapolis Center
Fri 09:31:52 PM 41.3328 -94.1264 74° East 498 573 37,000  Level Minneapolis Center
Fri 09:32:54 PM 41.3711 -93.9492 74° East 499 574 37,000  Level Minneapolis Center
Fri 09:33:56 PM 41.4103 -93.7725 73° East 500 575 37,000  Level Minneapolis Center
Fri 09:34:58 PM 41.4428 -93.5931 76° East 502 578 37,000  Level Minneapolis Center
Fri 09:35:59 PM 41.4608 -93.4086 82° East 504 580 37,000  Level Minneapolis Center
Fri 09:37:01 PM 41.4806 -93.1892 83° East 501 577 37,000  Level Minneapolis Center
Fri 09:38:02 PM 41.4978 -93.0072 83° East 499 574 37,000  Level Minneapolis Center
Fri 09:39:04 PM 41.5150 -92.8281 83° East 495 570 37,000  Level Minneapolis Center
Fri 09:40:06 PM 41.5322 -92.6447 83° East 497 572 37,000  Level Minneapolis Center
Fri 09:41:06 PM 41.5478 -92.4597 84° East 497 572 37,000  Level Chicago Center
Fri 09:42:07 PM 41.5636 -92.2789 83° East 498 573 37,000  Level Chicago Center
Fri 09:43:09 PM 41.5800 -92.0978 83° East 498 573 37,000  Level Chicago Center
Fri 09:44:11 PM 41.5981 -91.8775 84° East 502 578 37,000  Level Chicago Center
Fri 09:45:12 PM 41.6133 -91.6961 84° East 500 575 37,000  Level Chicago Center
Fri 09:46:14 PM 41.6272 -91.5119 84° East 502 578 37,000  Level Chicago Center
Fri 09:47:15 PM 41.6428 -91.3289 83° East 504 580 37,000  Level Chicago Center
Fri 09:48:17 PM 41.6567 -91.1456 84° East 502 578 37,000  Level Chicago Center
Fri 09:49:18 PM 41.6708 -90.9628 84° East 503 579 37,000  Level Chicago Center
Fri 09:50:20 PM 41.6867 -90.7411 84° East 504 580 37,000  Level Chicago Center
Fri 09:51:21 PM 41.6986 -90.5836 84° East 505 581 37,000  Level Chicago Center
Fri 09:52:23 PM 41.7139 -90.3617 85° East 500 575 37,000  Level Chicago Center
Fri 09:53:24 PM 41.7267 -90.1772 85° East 497 572 37,000  Level Chicago Center
Fri 09:54:26 PM 41.7392 -89.9906 85° East 501 577 37,000  Level Chicago Center
Fri 09:55:27 PM 41.7506 -89.8053 85° East 499 574 37,000  Level Chicago Center
Fri 09:56:29 PM 41.7622 -89.6192 85° East 500 575 37,000  Level Chicago Center
Fri 09:57:30 PM 41.7756 -89.4228 85° East 500 575 37,000  Level Chicago Center
Fri 09:58:31 PM 41.7864 -89.2375 85° East 502 578 37,000  Level Chicago Center
Fri 09:59:33 PM 41.7972 -89.0528 85° East 502 578 37,000  Level Chicago Center
Fri 10:00:34 PM 41.8067 -88.8661 86° East 503 579 37,000  Level Chicago Center
Fri 10:01:36 PM 41.8172 -88.6811 86° East 504 580 37,000  Level Chicago Center
Fri 10:02:37 PM 41.8272 -88.4972 86° East 497 572 37,000  Level Chicago Center
Fri 10:03:39 PM 41.8375 -88.2736 86° East 498 573 37,000  Level Chicago Center
Fri 10:04:40 PM 41.8461 -88.0881 86° East 498 573 37,000  Level Chicago Center
Fri 10:05:42 PM 41.8556 -87.9036 86° East 495 570 37,000  Level Chicago Center
Fri 10:06:43 PM 41.8639 -87.7189 86° East 496 571 37,000  Level Chicago Center
Fri 10:07:44 PM 41.8733 -87.5342 86° East 496 571 37,000  Level Chicago Center
Fri 10:08:46 PM 41.8803 -87.3483 87° East 500 575 37,000  Level Chicago Center
Fri 10:09:47 PM 41.8881 -87.1653 87° East 494 568 37,000  Level Chicago Center
Fri 10:10:49 PM 41.8953 -86.9803 87° East 496 571 37,000  Level Chicago Center
Fri 10:11:50 PM 41.9031 -86.7975 87° East 495 570 37,000  Level Chicago Center
Fri 10:12:51 PM 41.9108 -86.5814 87° East 497 572 37,000  Level Chicago Center
Fri 10:13:53 PM 41.9172 -86.3978 87° East 494 568 37,000  Level Chicago Center
Fri 10:14:54 PM 41.9222 -86.2125 88° East 497 572 37,000  Level Chicago Center
Fri 10:15:56 PM 41.9294 -86.0261 87° East 500 575 37,000  Level Chicago Center
Fri 10:16:57 PM 41.9347 -85.8414 88° East 496 571 37,000  Level Chicago Center
Fri 10:17:59 PM 41.9394 -85.6533 88° East 499 574 37,000  Level Chicago Center
Fri 10:19:00 PM 41.9447 -85.4669 88° East 494 568 37,000  Level Chicago Center
Fri 10:20:02 PM 41.9500 -85.2786 88° East 498 573 37,000  Level Chicago Center
Fri 10:20:27 PM 41.9547 -85.1964 86° East 487 560 37,000  Level Cleveland Center
Fri 10:21:26 PM 41.9517 -85.0119 91° East 493 567 37,000  Level Cleveland Center
Fri 10:22:27 PM 41.9503 -84.8247 91° East 498 573 37,000  Level Cleveland Center
Fri 10:23:27 PM 41.9508 -84.6375 90° East 498 573 37,000  Level Cleveland Center
Fri 10:24:27 PM 41.9469 -84.4503 92° East 498 573 37,000  Level Cleveland Center
Fri 10:25:26 PM 41.9431 -84.2517 91° East 498 573 37,000  Level Cleveland Center
Fri 10:26:26 PM 41.9406 -84.0644 91° East 498 573 37,000  Level Cleveland Center
Fri 10:27:26 PM 41.9375 -83.8828 91° East 498 573 37,000  Level Cleveland Center
Fri 10:28:27 PM 41.9342 -83.6983 91° East 498 573 37,000  Level Cleveland Center
Fri 10:29:27 PM 41.9331 -83.5111 90° East 498 573 37,000  Level Cleveland Center
Fri 10:30:27 PM 41.9333 -83.3297 90° East 498 573 37,000  Level Cleveland Center
Fri 10:31:26 PM 41.9292 -83.1481 92° East 493 567 37,000  Level Cleveland Center
Fri 10:32:26 PM 41.9289 -82.9667 90° East 498 573 37,000  Level Cleveland Center
Fri 10:33:27 PM 41.9281 -82.7992 90° East 498 573 37,000  Level Cleveland Center
Fri 10:34:27 PM 41.9253 -82.6178 91° East 498 573 37,000  Level Cleveland Center
Fri 10:35:27 PM 41.9242 -82.4333 90° East 498 573 37,000  Level Cleveland Center
Fri 10:36:27 PM 41.9208 -82.2492 91° East 498 573 37,000  Level Cleveland Center
Fri 10:37:27 PM 41.9192 -82.0508 91° East 498 573 37,000  Level Cleveland Center
Fri 10:38:26 PM 41.9153 -81.8639 92° East 498 573 37,000  Level Cleveland Center
Fri 10:39:27 PM 41.9006 -81.6767 96° East 498 573 37,000  Level Cleveland Center
Fri 10:40:26 PM 41.8856 -81.4894 96° East 504 580 37,000  Level Cleveland Center
Fri 10:41:26 PM 41.8681 -81.3053 97° East 504 580 37,000  Level Cleveland Center
Fri 10:42:26 PM 41.8525 -81.1211 96° East 504 580 37,000  Level Cleveland Center
Fri 10:43:26 PM 41.8344 -80.9314 97° East 504 580 37,000 -248 Level Cleveland Center
Fri 10:44:27 PM 41.8181 -80.7669 98° East 504 580 36,500 -950 Descending Cleveland Center
Fri 10:45:26 PM 41.7994 -80.5803 98° East 504 580 35,100 -750 Descending Cleveland Center
Fri 10:46:27 PM 41.7806 -80.3911 98° East 509 586 35,000 -50 Descending Cleveland Center
Fri 10:47:27 PM 41.7633 -80.2017 97° East 509 586 35,000  Level Cleveland Center
Fri 10:48:27 PM 41.7439 -80.0128 98° East 504 580 35,000  Level Cleveland Center
Fri 10:49:26 PM 41.7197 -79.8097 99° East 504 580 35,000  Level Cleveland Center
Fri 10:50:27 PM 41.7042 -79.6597 98° East 504 580 35,000  Level Cleveland Center
Fri 10:51:27 PM 41.6811 -79.4378 98° East 504 580 35,000  Level Cleveland Center
Fri 10:52:26 PM 41.6625 -79.2519 98° East 504 580 35,000  Level Cleveland Center
Fri 10:53:26 PM 41.6394 -79.0633 99° East 504 580 35,000  Level Cleveland Center
Fri 10:54:27 PM 41.6181 -78.8750 99° East 504 580 35,000  Level Cleveland Center
Fri 10:55:26 PM 41.5983 -78.6894 98° East 504 580 35,000  Level Cleveland Center
Fri 10:56:26 PM 41.5742 -78.4986 100° East 504 580 35,000 -200 Level Cleveland Center
Fri 10:57:26 PM 41.5539 -78.3106 98° East 504 580 34,600 -632 Descending Cleveland Center
Fri 10:57:42 PM 41.5503 -78.2861 101° East 481 554 34,200 -2,640 Descending New York Center
Fri 10:58:41 PM 41.5267 -78.0978 99° East 475 547 31,300 -1,600 Descending New York Center
Fri 10:59:42 PM 41.5050 -77.9069 99° East 496 571 31,000 -148 Descending New York Center
Fri 11:00:43 PM 41.4767 -77.7128 101° East 517 595 31,000 -450 Level New York Center
Fri 11:01:42 PM 41.4483 -77.5189 101° East 533 613 30,100 -1,091 Descending New York Center
Fri 11:02:44 PM 41.4164 -77.3108 102° East 533 613 28,800 -1,250 Descending New York Center
Fri 11:03:42 PM 41.3892 -77.1175 101° East 533 613 27,600 -1,261 Descending New York Center
Fri 11:04:43 PM 41.3617 -76.9297 101° East 528 608 26,300 -1,339 Descending New York Center
Fri 11:05:43 PM 41.3294 -76.7469 103° East 518 596 24,900 -1,361 Descending New York Center
Fri 11:06:42 PM 41.2836 -76.5744 109° East 502 578 23,600 -1,488 Descending New York Center
Fri 11:07:44 PM 41.2397 -76.4081 109° East 489 563 21,900 -1,636 Descending New York Center
Fri 11:08:43 PM 41.1986 -76.2611 110° East 477 549 20,300 -1,678 Descending New York Center
Fri 11:09:42 PM 41.1581 -76.1036 109° East 465 535 18,600 -1,750 Descending New York Center
Fri 11:10:43 PM 41.1114 -75.9344 110° East 443 510 16,800 -1,636 Descending New York Center
Fri 11:11:43 PM 41.0736 -75.7914 109° East 430 495 15,300 -1,488 Descending New York Center
Fri 11:12:44 PM 41.0356 -75.6564 110° East 430 495 13,800 -1,388 Descending New York Center
Fri 11:13:44 PM 40.9956 -75.5133 110° East 423 487 12,500 -1,250 Descending New York Center
Fri 11:14:44 PM 40.9553 -75.3731 111° Southeast 398 458 11,300 -1,100 Descending New York Center
Fri 11:15:44 PM 40.9261 -75.2669 110° East 354 407 10,300 -950 Descending New York Center
Fri 11:16:44 PM 40.8947 -75.1578 111° Southeast 327 376 9,400 -650 Descending New York Center
Fri 11:17:44 PM 40.8617 -75.0375 110° East 314 361 9,000 -252 Descending New York Center
Fri 11:18:43 PM 40.8300 -74.9314 111° Southeast 314 361 8,900 -650 Descending New York Center
Fri 11:19:44 PM 40.8022 -74.8311 110° East 314 361 7,700 -1,250 Descending New York Center
Fri 11:20:43 PM 40.7664 -74.7192 113° Southeast 309 356 6,400 -850 Descending New York Center
Fri 11:21:44 PM 40.7006 -74.6964 165° South 264 304 6,000 -555 Descending New York Center
Fri 11:22:42 PM 40.6281 -74.6786 169° South 252 290 5,300 -880 Descending New York Center
Fri 11:22:59 PM 40.6167 -74.6833 197° South 236 272 4,900 -289 Descending New York TRACON
Fri 11:24:05 PM 40.5333 -74.6667 171° South 238 274 4,900 -150 Level New York TRACON
Fri 11:24:59 PM 40.4833 -74.6500 166° South 215 247 4,600 -526 Descending New York TRACON
Fri 11:25:59 PM 40.4333 -74.6167 153° Southeast 217 250 3,900 -650 Descending New York TRACON
Fri 11:26:59 PM 40.4000 -74.5500 123° Southeast 216 249 3,300 -500 Descending New York TRACON
Fri 11:27:59 PM 40.4000 -74.4833 90° East 197 227 2,900 -200 Descending New York TRACON
Fri 11:28:59 PM 40.4000 -74.4000 90° East 198 228 2,900 50 Level New York TRACON
Fri 11:29:59 PM 40.4167 -74.3500 66° East 183 211 3,000  Climbing New York TRACON
Fri 11:31:05 PM 40.4667 -74.3167 27° Northeast 157 181 2,900  Descending New York TRACON
Fri 11:32:05 PM 40.5000 -74.2833 37° Northeast 153 176 3,000 53 Climbing New York TRACON
Fri 11:32:59 PM 40.5333 -74.2667 21° North 153 176 3,000  Level New York TRACON

Login

Don't have an account? Register now (free) for customized features, flight alerts, and more!